sensor_id;sensor_type;location;lat;lon;timestamp;temperature;humidity
24800;DHT22;12897;50.812;4.430;2023-02-01T00:01:21;7.70;99.90
24800;DHT22;12897;50.812;4.430;2023-02-01T00:03:48;7.70;99.90
24800;DHT22;12897;50.812;4.430;2023-02-01T00:06:16;7.70;99.90
24800;DHT22;12897;50.812;4.430;2023-02-01T00:08:43;7.80;99.90
24800;DHT22;12897;50.812;4.430;2023-02-01T00:11:11;7.80;99.90
24800;DHT22;12897;50.812;4.430;2023-02-01T00:13:41;7.80;99.90
24800;DHT22;12897;50.812;4.430;2023-02-01T00:16:11;7.80;99.90
24800;DHT22;12897;50.812;4.430;2023-02-01T00:18:39;7.80;99.90
24800;DHT22;12897;50.812;4.430;2023-02-01T00:21:06;7.80;99.90
24800;DHT22;12897;50.812;4.430;2023-02-01T00:23:35;7.80;99.90
24800;DHT22;12897;50.812;4.430;2023-02-01T00:26:09;7.90;99.90
24800;DHT22;12897;50.812;4.430;2023-02-01T00:28:36;7.80;99.90
24800;DHT22;12897;50.812;4.430;2023-02-01T00:31:04;7.80;99.90
24800;DHT22;12897;50.812;4.430;2023-02-01T00:33:32;7.80;99.90
24800;DHT22;12897;50.812;4.430;2023-02-01T00:36:02;7.70;99.90
24800;DHT22;12897;50.812;4.430;2023-02-01T00:38:31;7.70;99.90
24800;DHT22;12897;50.812;4.430;2023-02-01T00:41:16;7.70;99.90
24800;DHT22;12897;50.812;4.430;2023-02-01T00:43:35;7.60;99.90
24800;DHT22;12897;50.812;4.430;2023-02-01T00:46:02;7.70;99.90
24800;DHT22;12897;50.812;4.430;2023-02-01T00:48:32;7.70;99.90
24800;DHT22;12897;50.812;4.430;2023-02-01T00:51:01;7.70;99.90
24800;DHT22;12897;50.812;4.430;2023-02-01T00:53:29;7.70;99.90
24800;DHT22;12897;50.812;4.430;2023-02-01T00:55:57;7.70;99.90
24800;DHT22;12897;50.812;4.430;2023-02-01T00:58:25;7.70;99.90
24800;DHT22;12897;50.812;4.430;2023-02-01T01:03:37;7.70;99.90
24800;DHT22;12897;50.812;4.430;2023-02-01T01:06:05;7.70;99.90
24800;DHT22;12897;50.812;4.430;2023-02-01T01:08:34;7.80;99.90
24800;DHT22;12897;50.812;4.430;2023-02-01T01:11:12;7.70;99.90
24800;DHT22;12897;50.812;4.430;2023-02-01T01:13:35;7.70;99.90
24800;DHT22;12897;50.812;4.430;2023-02-01T01:16:07;7.70;99.90
24800;DHT22;12897;50.812;4.430;2023-02-01T01:18:41;7.70;99.90
24800;DHT22;12897;50.812;4.430;2023-02-01T01:21:06;7.60;99.90
24800;DHT22;12897;50.812;4.430;2023-02-01T01:23:34;7.60;99.90
24800;DHT22;12897;50.812;4.430;2023-02-01T01:26:07;7.60;99.90
24800;DHT22;12897;50.812;4.430;2023-02-01T01:28:36;7.70;99.90
24800;DHT22;12897;50.812;4.430;2023-02-01T01:31:03;7.70;99.90
24800;DHT22;12897;50.812;4.430;2023-02-01T01:33:33;7.70;99.90
24800;DHT22;12897;50.812;4.430;2023-02-01T01:36:00;7.70;99.90
24800;DHT22;12897;50.812;4.430;2023-02-01T01:38:29;7.70;99.90
24800;DHT22;12897;50.812;4.430;2023-02-01T01:40:57;7.70;99.90
24800;DHT22;12897;50.812;4.430;2023-02-01T01:43:25;7.70;99.90
24800;DHT22;12897;50.812;4.430;2023-02-01T01:45:52;7.60;99.90
24800;DHT22;12897;50.812;4.430;2023-02-01T01:48:25;7.70;99.90
24800;DHT22;12897;50.812;4.430;2023-02-01T01:51:02;7.70;99.90
24800;DHT22;12897;50.812;4.430;2023-02-01T01:53:33;7.80;99.90
24800;DHT22;12897;50.812;4.430;2023-02-01T01:56:00;7.70;99.90
24800;DHT22;12897;50.812;4.430;2023-02-01T01:58:31;7.70;99.90
24800;DHT22;12897;50.812;4.430;2023-02-01T02:01:00;7.80;99.90
24800;DHT22;12897;50.812;4.430;2023-02-01T02:03:32;7.80;99.90
24800;DHT22;12897;50.812;4.430;2023-02-01T02:06:02;7.70;99.90
24800;DHT22;12897;50.812;4.430;2023-02-01T02:08:30;7.70;99.90
24800;DHT22;12897;50.812;4.430;2023-02-01T02:10:59;7.70;99.90
24800;DHT22;12897;50.812;4.430;2023-02-01T02:13:39;7.60;99.90
24800;DHT22;12897;50.812;4.430;2023-02-01T02:16:14;7.60;99.90
24800;DHT22;12897;50.812;4.430;2023-02-01T02:18:44;7.60;99.90
24800;DHT22;12897;50.812;4.430;2023-02-01T02:21:32;7.70;99.90
24800;DHT22;12897;50.812;4.430;2023-02-01T02:25:01;7.60;99.90
24800;DHT22;12897;50.812;4.430;2023-02-01T02:35:01;7.50;99.90
24800;DHT22;12897;50.812;4.430;2023-02-01T02:37:53;7.50;99.90
24800;DHT22;12897;50.812;4.430;2023-02-01T02:40:28;7.60;99.90
24800;DHT22;12897;50.812;4.430;2023-02-01T02:43:02;7.60;99.90
24800;DHT22;12897;50.812;4.430;2023-02-01T02:45:51;7.60;99.90
24800;DHT22;12897;50.812;4.430;2023-02-01T02:49:01;7.60;99.90
24800;DHT22;12897;50.812;4.430;2023-02-01T02:54:18;7.70;99.90
24800;DHT22;12897;50.812;4.430;2023-02-01T02:57:07;7.60;99.90
24800;DHT22;12897;50.812;4.430;2023-02-01T03:00:02;7.50;99.90
24800;DHT22;12897;50.812;4.430;2023-02-01T03:02:54;7.50;99.90
24800;DHT22;12897;50.812;4.430;2023-02-01T03:05:45;7.40;99.90
24800;DHT22;12897;50.812;4.430;2023-02-01T03:08:20;7.20;99.90
24800;DHT22;12897;50.812;4.430;2023-02-01T03:13:32;7.30;99.90
24800;DHT22;12897;50.812;4.430;2023-02-01T03:16:18;7.30;99.90
24800;DHT22;12897;50.812;4.430;2023-02-01T03:19:03;7.30;99.90
24800;DHT22;12897;50.812;4.430;2023-02-01T03:21:37;7.20;99.90
24800;DHT22;12897;50.812;4.430;2023-02-01T03:24:11;7.20;99.90
24800;DHT22;12897;50.812;4.430;2023-02-01T03:26:37;7.20;99.90
24800;DHT22;12897;50.812;4.430;2023-02-01T03:29:12;7.20;99.90
24800;DHT22;12897;50.812;4.430;2023-02-01T03:31:40;7.10;99.90
24800;DHT22;12897;50.812;4.430;2023-02-01T03:34:11;7.10;99.90
24800;DHT22;12897;50.812;4.430;2023-02-01T03:36:45;7.10;99.90
24800;DHT22;12897;50.812;4.430;2023-02-01T03:39:14;7.10;99.90
24800;DHT22;12897;50.812;4.430;2023-02-01T03:41:51;7.00;99.90
24800;DHT22;12897;50.812;4.430;2023-02-01T03:44:22;6.90;99.90
24800;DHT22;12897;50.812;4.430;2023-02-01T03:47:05;6.90;99.90
24800;DHT22;12897;50.812;4.430;2023-02-01T03:49:45;6.90;99.90
24800;DHT22;12897;50.812;4.430;2023-02-01T03:52:16;6.90;99.90
24800;DHT22;12897;50.812;4.430;2023-02-01T03:54:44;6.90;99.90
24800;DHT22;12897;50.812;4.430;2023-02-01T03:57:14;6.80;99.90
24800;DHT22;12897;50.812;4.430;2023-02-01T03:59:45;6.80;99.90
24800;DHT22;12897;50.812;4.430;2023-02-01T04:02:12;6.80;99.90
24800;DHT22;12897;50.812;4.430;2023-02-01T04:04:42;6.90;99.90
24800;DHT22;12897;50.812;4.430;2023-02-01T04:07:10;6.80;99.90
24800;DHT22;12897;50.812;4.430;2023-02-01T04:09:38;6.80;99.90
24800;DHT22;12897;50.812;4.430;2023-02-01T04:12:07;6.70;99.90
24800;DHT22;12897;50.812;4.430;2023-02-01T04:14:34;6.70;99.90
24800;DHT22;12897;50.812;4.430;2023-02-01T04:17:02;6.60;99.90
24800;DHT22;12897;50.812;4.430;2023-02-01T04:19:29;6.50;99.90
24800;DHT22;12897;50.812;4.430;2023-02-01T04:21:57;6.50;99.90
24800;DHT22;12897;50.812;4.430;2023-02-01T04:24:27;6.50;99.90
24800;DHT22;12897;50.812;4.430;2023-02-01T04:27:03;6.50;99.90
24800;DHT22;12897;50.812;4.430;2023-02-01T04:29:33;6.50;99.90
24800;DHT22;12897;50.812;4.430;2023-02-01T04:32:02;6.50;99.90
24800;DHT22;12897;50.812;4.430;2023-02-01T04:34:30;6.40;99.90
24800;DHT22;12897;50.812;4.430;2023-02-01T04:36:57;6.40;99.90
24800;DHT22;12897;50.812;4.430;2023-02-01T04:39:25;6.30;99.90
24800;DHT22;12897;50.812;4.430;2023-02-01T04:41:52;6.30;99.90
24800;DHT22;12897;50.812;4.430;2023-02-01T04:44:20;6.30;99.90
24800;DHT22;12897;50.812;4.430;2023-02-01T04:46:50;6.30;99.90
24800;DHT22;12897;50.812;4.430;2023-02-01T04:49:17;6.20;99.90
24800;DHT22;12897;50.812;4.430;2023-02-01T04:51:46;6.20;99.90
24800;DHT22;12897;50.812;4.430;2023-02-01T04:54:14;6.10;99.90
24800;DHT22;12897;50.812;4.430;2023-02-01T04:56:41;6.10;99.90
24800;DHT22;12897;50.812;4.430;2023-02-01T04:59:11;6.10;99.90
24800;DHT22;12897;50.812;4.430;2023-02-01T05:01:39;6.00;99.90
24800;DHT22;12897;50.812;4.430;2023-02-01T05:04:06;6.00;99.90
24800;DHT22;12897;50.812;4.430;2023-02-01T05:06:34;6.00;99.90
24800;DHT22;12897;50.812;4.430;2023-02-01T05:09:03;6.00;99.90
24800;DHT22;12897;50.812;4.430;2023-02-01T05:11:32;6.00;99.90
24800;DHT22;12897;50.812;4.430;2023-02-01T05:14:18;6.00;99.90
24800;DHT22;12897;50.812;4.430;2023-02-01T05:16:49;5.90;99.90
24800;DHT22;12897;50.812;4.430;2023-02-01T05:19:16;6.00;99.90
24800;DHT22;12897;50.812;4.430;2023-02-01T05:21:44;6.00;99.90
24800;DHT22;12897;50.812;4.430;2023-02-01T05:24:12;5.90;99.90
24800;DHT22;12897;50.812;4.430;2023-02-01T05:26:42;5.90;99.90
24800;DHT22;12897;50.812;4.430;2023-02-01T05:29:10;5.90;99.90
24800;DHT22;12897;50.812;4.430;2023-02-01T05:31:38;5.90;99.90
24800;DHT22;12897;50.812;4.430;2023-02-01T05:34:06;5.80;99.90
24800;DHT22;12897;50.812;4.430;2023-02-01T05:36:33;5.80;99.90
24800;DHT22;12897;50.812;4.430;2023-02-01T05:39:01;5.80;99.90
24800;DHT22;12897;50.812;4.430;2023-02-01T05:41:31;5.80;99.90
24800;DHT22;12897;50.812;4.430;2023-02-01T05:43:59;5.90;99.90
24800;DHT22;12897;50.812;4.430;2023-02-01T05:46:26;5.80;99.90
24800;DHT22;12897;50.812;4.430;2023-02-01T05:48:54;5.70;99.90
24800;DHT22;12897;50.812;4.430;2023-02-01T05:51:22;5.60;99.90
24800;DHT22;12897;50.812;4.430;2023-02-01T05:53:50;5.60;99.90
24800;DHT22;12897;50.812;4.430;2023-02-01T05:56:17;5.50;99.90
24800;DHT22;12897;50.812;4.430;2023-02-01T05:58:46;5.60;99.90
24800;DHT22;12897;50.812;4.430;2023-02-01T06:01:15;5.60;99.90
24800;DHT22;12897;50.812;4.430;2023-02-01T06:03:42;5.50;99.90
24800;DHT22;12897;50.812;4.430;2023-02-01T06:06:10;5.60;99.90
24800;DHT22;12897;50.812;4.430;2023-02-01T06:08:40;5.50;99.90
24800;DHT22;12897;50.812;4.430;2023-02-01T06:11:10;5.50;99.90
24800;DHT22;12897;50.812;4.430;2023-02-01T06:13:37;5.50;99.90
24800;DHT22;12897;50.812;4.430;2023-02-01T06:16:05;5.50;99.90
24800;DHT22;12897;50.812;4.430;2023-02-01T06:18:34;5.50;99.90
24800;DHT22;12897;50.812;4.430;2023-02-01T06:21:02;5.60;99.90
24800;DHT22;12897;50.812;4.430;2023-02-01T06:23:30;5.60;99.90
24800;DHT22;12897;50.812;4.430;2023-02-01T06:26:00;5.50;99.90
24800;DHT22;12897;50.812;4.430;2023-02-01T06:28:29;5.50;99.90
24800;DHT22;12897;50.812;4.430;2023-02-01T06:30:57;5.50;99.90
24800;DHT22;12897;50.812;4.430;2023-02-01T06:33:27;5.40;99.90
24800;DHT22;12897;50.812;4.430;2023-02-01T06:35:59;5.40;99.90
24800;DHT22;12897;50.812;4.430;2023-02-01T06:38:28;5.40;99.90
24800;DHT22;12897;50.812;4.430;2023-02-01T06:41:02;5.50;99.90
24800;DHT22;12897;50.812;4.430;2023-02-01T06:43:32;5.50;99.90
24800;DHT22;12897;50.812;4.430;2023-02-01T06:46:01;5.50;99.90
24800;DHT22;12897;50.812;4.430;2023-02-01T06:48:29;5.50;99.90
24800;DHT22;12897;50.812;4.430;2023-02-01T06:50:57;5.50;99.90
24800;DHT22;12897;50.812;4.430;2023-02-01T06:53:25;5.40;99.90
24800;DHT22;12897;50.812;4.430;2023-02-01T06:55:54;5.40;99.90
24800;DHT22;12897;50.812;4.430;2023-02-01T06:58:22;5.40;99.90
24800;DHT22;12897;50.812;4.430;2023-02-01T07:00:50;5.40;99.90
24800;DHT22;12897;50.812;4.430;2023-02-01T07:03:19;5.40;99.90
24800;DHT22;12897;50.812;4.430;2023-02-01T07:05:50;5.40;99.90
24800;DHT22;12897;50.812;4.430;2023-02-01T07:08:43;5.50;99.90
24800;DHT22;12897;50.812;4.430;2023-02-01T07:11:27;5.40;99.90
24800;DHT22;12897;50.812;4.430;2023-02-01T07:13:58;5.40;99.90
24800;DHT22;12897;50.812;4.430;2023-02-01T07:16:27;5.50;99.90
24800;DHT22;12897;50.812;4.430;2023-02-01T07:18:55;5.40;99.90
24800;DHT22;12897;50.812;4.430;2023-02-01T07:21:24;5.40;99.90
24800;DHT22;12897;50.812;4.430;2023-02-01T07:23:53;5.30;99.90
24800;DHT22;12897;50.812;4.430;2023-02-01T07:26:21;5.30;99.90
24800;DHT22;12897;50.812;4.430;2023-02-01T07:28:49;5.70;99.90
24800;DHT22;12897;50.812;4.430;2023-02-01T07:31:19;5.50;99.90
24800;DHT22;12897;50.812;4.430;2023-02-01T07:33:49;5.40;99.90
24800;DHT22;12897;50.812;4.430;2023-02-01T07:36:20;5.40;99.90
24800;DHT22;12897;50.812;4.430;2023-02-01T07:38:49;5.40;99.90
24800;DHT22;12897;50.812;4.430;2023-02-01T07:41:19;5.50;99.90
24800;DHT22;12897;50.812;4.430;2023-02-01T07:43:47;5.60;99.90
24800;DHT22;12897;50.812;4.430;2023-02-01T07:46:27;5.70;99.90
24800;DHT22;12897;50.812;4.430;2023-02-01T07:48:57;5.60;99.90
24800;DHT22;12897;50.812;4.430;2023-02-01T07:51:25;5.50;99.90
24800;DHT22;12897;50.812;4.430;2023-02-01T07:53:54;5.60;99.90
24800;DHT22;12897;50.812;4.430;2023-02-01T07:56:24;5.70;99.90
24800;DHT22;12897;50.812;4.430;2023-02-01T07:58:54;5.70;99.90
24800;DHT22;12897;50.812;4.430;2023-02-01T08:01:26;5.80;99.90
24800;DHT22;12897;50.812;4.430;2023-02-01T08:04:00;5.90;99.90
24800;DHT22;12897;50.812;4.430;2023-02-01T08:06:36;5.90;99.90
24800;DHT22;12897;50.812;4.430;2023-02-01T08:09:05;6.00;99.90
24800;DHT22;12897;50.812;4.430;2023-02-01T08:11:34;6.00;99.90
24800;DHT22;12897;50.812;4.430;2023-02-01T08:14:04;6.10;99.90
24800;DHT22;12897;50.812;4.430;2023-02-01T08:16:34;6.20;99.90
24800;DHT22;12897;50.812;4.430;2023-02-01T08:19:09;6.10;99.90
24800;DHT22;12897;50.812;4.430;2023-02-01T08:21:37;6.10;99.90
24800;DHT22;12897;50.812;4.430;2023-02-01T08:24:05;6.00;99.90
24800;DHT22;12897;50.812;4.430;2023-02-01T08:26:33;6.00;99.90
24800;DHT22;12897;50.812;4.430;2023-02-01T08:29:02;6.00;99.90
24800;DHT22;12897;50.812;4.430;2023-02-01T08:31:31;6.10;99.90
24800;DHT22;12897;50.812;4.430;2023-02-01T08:34:01;6.10;99.90
24800;DHT22;12897;50.812;4.430;2023-02-01T08:36:31;6.10;99.90
24800;DHT22;12897;50.812;4.430;2023-02-01T08:39:01;6.10;99.90
24800;DHT22;12897;50.812;4.430;2023-02-01T08:41:30;6.10;99.90
24800;DHT22;12897;50.812;4.430;2023-02-01T08:43:58;6.00;99.90
24800;DHT22;12897;50.812;4.430;2023-02-01T08:46:31;6.10;99.90
24800;DHT22;12897;50.812;4.430;2023-02-01T08:48:56;6.30;99.90
24800;DHT22;12897;50.812;4.430;2023-02-01T08:51:26;6.30;99.90
24800;DHT22;12897;50.812;4.430;2023-02-01T08:53:53;6.30;99.90
24800;DHT22;12897;50.812;4.430;2023-02-01T08:56:21;6.40;99.90
24800;DHT22;12897;50.812;4.430;2023-02-01T08:58:52;6.30;99.90
24800;DHT22;12897;50.812;4.430;2023-02-01T09:01:19;6.40;99.90
24800;DHT22;12897;50.812;4.430;2023-02-01T09:03:47;6.30;99.90
24800;DHT22;12897;50.812;4.430;2023-02-01T09:06:15;6.30;99.90
24800;DHT22;12897;50.812;4.430;2023-02-01T09:08:44;6.40;99.90
24800;DHT22;12897;50.812;4.430;2023-02-01T09:11:15;6.40;99.90
24800;DHT22;12897;50.812;4.430;2023-02-01T09:13:44;6.40;99.90
24800;DHT22;12897;50.812;4.430;2023-02-01T09:16:12;6.40;99.90
24800;DHT22;12897;50.812;4.430;2023-02-01T09:18:40;6.40;99.90
24800;DHT22;12897;50.812;4.430;2023-02-01T09:21:08;6.40;99.90
24800;DHT22;12897;50.812;4.430;2023-02-01T09:23:37;6.50;99.90
24800;DHT22;12897;50.812;4.430;2023-02-01T09:26:08;6.60;99.90
24800;DHT22;12897;50.812;4.430;2023-02-01T09:28:38;6.50;99.90
24800;DHT22;12897;50.812;4.430;2023-02-01T09:31:06;6.50;99.90
24800;DHT22;12897;50.812;4.430;2023-02-01T09:33:33;6.60;99.90
24800;DHT22;12897;50.812;4.430;2023-02-01T09:36:03;6.80;99.90
24800;DHT22;12897;50.812;4.430;2023-02-01T09:38:31;6.80;99.90
24800;DHT22;12897;50.812;4.430;2023-02-01T09:41:06;6.80;99.90
24800;DHT22;12897;50.812;4.430;2023-02-01T09:48:55;7.10;99.90
24800;DHT22;12897;50.812;4.430;2023-02-01T09:51:37;7.10;99.90
24800;DHT22;12897;50.812;4.430;2023-02-01T09:54:04;7.40;99.90
24800;DHT22;12897;50.812;4.430;2023-02-01T09:59:14;7.60;99.90
24800;DHT22;12897;50.812;4.430;2023-02-01T10:01:39;7.40;99.90
24800;DHT22;12897;50.812;4.430;2023-02-01T10:04:12;7.40;99.90
24800;DHT22;12897;50.812;4.430;2023-02-01T10:09:54;7.50;99.90
24800;DHT22;12897;50.812;4.430;2023-02-01T10:12:45;7.40;99.90
24800;DHT22;12897;50.812;4.430;2023-02-01T10:15:35;7.30;99.90
24800;DHT22;12897;50.812;4.430;2023-02-01T10:18:15;7.40;99.90
24800;DHT22;12897;50.812;4.430;2023-02-01T10:20:59;7.30;99.90
24800;DHT22;12897;50.812;4.430;2023-02-01T10:23:44;7.40;99.90
24800;DHT22;12897;50.812;4.430;2023-02-01T10:26:20;7.50;99.90
24800;DHT22;12897;50.812;4.430;2023-02-01T10:29:24;7.50;99.90
24800;DHT22;12897;50.812;4.430;2023-02-01T10:31:34;7.50;99.90
24800;DHT22;12897;50.812;4.430;2023-02-01T10:36:54;7.60;99.90
24800;DHT22;12897;50.812;4.430;2023-02-01T10:39:21;7.70;99.90
24800;DHT22;12897;50.812;4.430;2023-02-01T10:41:49;7.80;99.90
24800;DHT22;12897;50.812;4.430;2023-02-01T10:44:23;7.80;99.90
24800;DHT22;12897;50.812;4.430;2023-02-01T10:46:53;7.90;99.90
24800;DHT22;12897;50.812;4.430;2023-02-01T10:49:25;8.00;99.90
24800;DHT22;12897;50.812;4.430;2023-02-01T10:52:01;8.00;99.90
24800;DHT22;12897;50.812;4.430;2023-02-01T10:54:38;8.00;99.90
24800;DHT22;12897;50.812;4.430;2023-02-01T10:57:10;8.20;99.90
24800;DHT22;12897;50.812;4.430;2023-02-01T10:59:39;8.20;99.90
24800;DHT22;12897;50.812;4.430;2023-02-01T11:05:08;8.60;99.90
24800;DHT22;12897;50.812;4.430;2023-02-01T11:07:45;8.70;99.90
24800;DHT22;12897;50.812;4.430;2023-02-01T11:10:10;8.80;99.90
24800;DHT22;12897;50.812;4.430;2023-02-01T11:12:38;8.90;99.90
24800;DHT22;12897;50.812;4.430;2023-02-01T11:15:20;9.00;99.90
24800;DHT22;12897;50.812;4.430;2023-02-01T11:17:50;9.10;99.90
24800;DHT22;12897;50.812;4.430;2023-02-01T11:20:37;9.10;99.90
24800;DHT22;12897;50.812;4.430;2023-02-01T11:22:54;9.10;99.90
24800;DHT22;12897;50.812;4.430;2023-02-01T11:25:23;9.10;99.90
24800;DHT22;12897;50.812;4.430;2023-02-01T11:27:53;9.10;99.90
24800;DHT22;12897;50.812;4.430;2023-02-01T11:32:55;9.40;99.90
24800;DHT22;12897;50.812;4.430;2023-02-01T11:35:23;9.50;99.90
24800;DHT22;12897;50.812;4.430;2023-02-01T11:37:58;9.40;99.90
24800;DHT22;12897;50.812;4.430;2023-02-01T11:40:46;9.40;99.90
24800;DHT22;12897;50.812;4.430;2023-02-01T11:46:00;9.40;99.90
24800;DHT22;12897;50.812;4.430;2023-02-01T11:48:27;9.50;99.90
24800;DHT22;12897;50.812;4.430;2023-02-01T11:54:20;9.20;99.90
24800;DHT22;12897;50.812;4.430;2023-02-01T11:57:01;9.20;99.90
24800;DHT22;12897;50.812;4.430;2023-02-01T11:59:52;9.20;99.90
24800;DHT22;12897;50.812;4.430;2023-02-01T12:14:02;9.60;99.90
24800;DHT22;12897;50.812;4.430;2023-02-01T12:16:35;9.70;99.90
24800;DHT22;12897;50.812;4.430;2023-02-01T12:19:14;9.60;99.90
24800;DHT22;12897;50.812;4.430;2023-02-01T12:21:49;9.60;99.90
24800;DHT22;12897;50.812;4.430;2023-02-01T12:24:32;9.50;99.90
24800;DHT22;12897;50.812;4.430;2023-02-01T12:27:27;9.60;99.90
24800;DHT22;12897;50.812;4.430;2023-02-01T12:43:45;9.90;99.90
24800;DHT22;12897;50.812;4.430;2023-02-01T12:46:19;10.00;99.90
24800;DHT22;12897;50.812;4.430;2023-02-01T12:49:11;10.10;99.90
24800;DHT22;12897;50.812;4.430;2023-02-01T12:51:43;10.00;99.90
24800;DHT22;12897;50.812;4.430;2023-02-01T12:56:53;10.10;99.90
24800;DHT22;12897;50.812;4.430;2023-02-01T12:59:35;10.20;99.90
24800;DHT22;12897;50.812;4.430;2023-02-01T13:02:39;10.10;99.90
24800;DHT22;12897;50.812;4.430;2023-02-01T13:05:17;10.10;99.90
24800;DHT22;12897;50.812;4.430;2023-02-01T13:15:46;10.30;99.90
24800;DHT22;12897;50.812;4.430;2023-02-01T13:18:18;10.30;99.90
24800;DHT22;12897;50.812;4.430;2023-02-01T13:21:08;10.30;99.90
24800;DHT22;12897;50.812;4.430;2023-02-01T13:23:40;10.50;99.90
24800;DHT22;12897;50.812;4.430;2023-02-01T13:26:07;10.50;99.90
24800;DHT22;12897;50.812;4.430;2023-02-01T13:39:43;10.60;99.90
24800;DHT22;12897;50.812;4.430;2023-02-01T13:42:20;10.50;99.90
24800;DHT22;12897;50.812;4.430;2023-02-01T13:45:05;10.60;99.90
24800;DHT22;12897;50.812;4.430;2023-02-01T13:47:41;10.70;99.90
24800;DHT22;12897;50.812;4.430;2023-02-01T13:52:57;10.90;99.90
24800;DHT22;12897;50.812;4.430;2023-02-01T13:57:58;10.70;99.90
24800;DHT22;12897;50.812;4.430;2023-02-01T14:08:10;10.40;99.90
24800;DHT22;12897;50.812;4.430;2023-02-01T14:10:59;10.30;99.90
24800;DHT22;12897;50.812;4.430;2023-02-01T14:21:31;10.30;99.90
24800;DHT22;12897;50.812;4.430;2023-02-01T14:26:46;10.40;99.90
24800;DHT22;12897;50.812;4.430;2023-02-01T14:29:25;10.40;99.90
24800;DHT22;12897;50.812;4.430;2023-02-01T14:42:49;10.40;99.90
24800;DHT22;12897;50.812;4.430;2023-02-01T14:50:41;10.20;99.90
24800;DHT22;12897;50.812;4.430;2023-02-01T14:53:20;10.20;99.90
24800;DHT22;12897;50.812;4.430;2023-02-01T14:56:16;10.20;99.90
24800;DHT22;12897;50.812;4.430;2023-02-01T14:58:45;10.20;99.90
24800;DHT22;12897;50.812;4.430;2023-02-01T15:01:27;10.20;99.90
24800;DHT22;12897;50.812;4.430;2023-02-01T15:04:16;10.20;99.90
24800;DHT22;12897;50.812;4.430;2023-02-01T15:06:55;10.30;99.90
24800;DHT22;12897;50.812;4.430;2023-02-01T15:09:31;10.30;99.90
24800;DHT22;12897;50.812;4.430;2023-02-01T15:14:34;10.30;99.90
24800;DHT22;12897;50.812;4.430;2023-02-01T15:17:03;10.20;99.90
24800;DHT22;12897;50.812;4.430;2023-02-01T15:19:31;10.10;99.90
24800;DHT22;12897;50.812;4.430;2023-02-01T15:21:59;10.00;99.90
24800;DHT22;12897;50.812;4.430;2023-02-01T15:24:29;10.00;99.90
24800;DHT22;12897;50.812;4.430;2023-02-01T15:27:05;10.00;99.90
24800;DHT22;12897;50.812;4.430;2023-02-01T15:29:33;10.00;99.90
24800;DHT22;12897;50.812;4.430;2023-02-01T15:32:01;10.00;99.90
24800;DHT22;12897;50.812;4.430;2023-02-01T15:34:49;9.90;99.90
24800;DHT22;12897;50.812;4.430;2023-02-01T15:37:17;9.80;99.90
24800;DHT22;12897;50.812;4.430;2023-02-01T15:42:51;9.80;99.90
24800;DHT22;12897;50.812;4.430;2023-02-01T15:45:20;9.70;99.90
24800;DHT22;12897;50.812;4.430;2023-02-01T15:47:49;9.70;99.90
24800;DHT22;12897;50.812;4.430;2023-02-01T15:50:20;9.70;99.90
24800;DHT22;12897;50.812;4.430;2023-02-01T15:52:52;9.70;99.90
24800;DHT22;12897;50.812;4.430;2023-02-01T15:58:21;9.80;99.90
24800;DHT22;12897;50.812;4.430;2023-02-01T16:03:33;9.70;99.90
24800;DHT22;12897;50.812;4.430;2023-02-01T16:06:08;9.70;99.90
24800;DHT22;12897;50.812;4.430;2023-02-01T16:08:36;9.70;99.90
24800;DHT22;12897;50.812;4.430;2023-02-01T16:13:39;9.60;99.90
24800;DHT22;12897;50.812;4.430;2023-02-01T16:16:15;9.70;99.90
24800;DHT22;12897;50.812;4.430;2023-02-01T16:18:43;9.70;99.90
24800;DHT22;12897;50.812;4.430;2023-02-01T16:21:11;9.70;99.90
24800;DHT22;12897;50.812;4.430;2023-02-01T16:23:41;9.60;99.90
24800;DHT22;12897;50.812;4.430;2023-02-01T16:26:13;9.60;99.90
24800;DHT22;12897;50.812;4.430;2023-02-01T16:28:43;9.70;99.90
24800;DHT22;12897;50.812;4.430;2023-02-01T16:31:16;9.70;99.90
24800;DHT22;12897;50.812;4.430;2023-02-01T16:33:46;9.60;99.90
24800;DHT22;12897;50.812;4.430;2023-02-01T16:36:14;9.60;99.90
24800;DHT22;12897;50.812;4.430;2023-02-01T16:38:43;9.60;99.90
24800;DHT22;12897;50.812;4.430;2023-02-01T16:41:32;9.60;99.90
24800;DHT22;12897;50.812;4.430;2023-02-01T16:43:56;9.70;99.90
24800;DHT22;12897;50.812;4.430;2023-02-01T16:46:26;9.70;99.90
24800;DHT22;12897;50.812;4.430;2023-02-01T16:48:59;9.80;99.90
24800;DHT22;12897;50.812;4.430;2023-02-01T16:51:32;9.70;99.90
24800;DHT22;12897;50.812;4.430;2023-02-01T16:54:01;9.70;99.90
24800;DHT22;12897;50.812;4.430;2023-02-01T16:56:32;9.60;99.90
24800;DHT22;12897;50.812;4.430;2023-02-01T16:59:05;9.50;99.90
24800;DHT22;12897;50.812;4.430;2023-02-01T17:01:35;9.50;99.90
24800;DHT22;12897;50.812;4.430;2023-02-01T17:04:20;9.50;99.90
24800;DHT22;12897;50.812;4.430;2023-02-01T17:06:40;9.50;99.90
24800;DHT22;12897;50.812;4.430;2023-02-01T17:09:09;9.40;99.90
24800;DHT22;12897;50.812;4.430;2023-02-01T17:11:36;9.40;99.90
24800;DHT22;12897;50.812;4.430;2023-02-01T17:14:14;9.50;99.90
24800;DHT22;12897;50.812;4.430;2023-02-01T17:16:39;9.60;99.90
24800;DHT22;12897;50.812;4.430;2023-02-01T17:19:15;9.60;99.90
24800;DHT22;12897;50.812;4.430;2023-02-01T17:21:46;9.50;99.90
24800;DHT22;12897;50.812;4.430;2023-02-01T17:24:21;9.40;99.90
24800;DHT22;12897;50.812;4.430;2023-02-01T17:26:50;9.40;99.90
24800;DHT22;12897;50.812;4.430;2023-02-01T17:29:17;9.40;99.90
24800;DHT22;12897;50.812;4.430;2023-02-01T17:31:52;9.30;99.90
24800;DHT22;12897;50.812;4.430;2023-02-01T17:34:19;9.30;99.90
24800;DHT22;12897;50.812;4.430;2023-02-01T17:36:48;9.40;99.90
24800;DHT22;12897;50.812;4.430;2023-02-01T17:39:17;9.30;99.90
24800;DHT22;12897;50.812;4.430;2023-02-01T17:42:04;9.40;99.90
24800;DHT22;12897;50.812;4.430;2023-02-01T17:44:32;9.40;99.90
24800;DHT22;12897;50.812;4.430;2023-02-01T17:46:59;9.40;99.90
24800;DHT22;12897;50.812;4.430;2023-02-01T17:49:27;9.40;99.90
24800;DHT22;12897;50.812;4.430;2023-02-01T17:51:55;9.30;99.90
24800;DHT22;12897;50.812;4.430;2023-02-01T17:54:23;9.40;99.90
24800;DHT22;12897;50.812;4.430;2023-02-01T17:56:51;9.30;99.90
24800;DHT22;12897;50.812;4.430;2023-02-01T17:59:19;9.30;99.90
24800;DHT22;12897;50.812;4.430;2023-02-01T18:01:46;9.30;99.90
24800;DHT22;12897;50.812;4.430;2023-02-01T18:04:17;9.30;99.90
24800;DHT22;12897;50.812;4.430;2023-02-01T18:06:45;9.20;99.90
24800;DHT22;12897;50.812;4.430;2023-02-01T18:09:12;9.20;99.90
24800;DHT22;12897;50.812;4.430;2023-02-01T18:11:40;9.20;99.90
24800;DHT22;12897;50.812;4.430;2023-02-01T18:14:13;9.20;99.90
24800;DHT22;12897;50.812;4.430;2023-02-01T18:16:41;9.10;99.90
24800;DHT22;12897;50.812;4.430;2023-02-01T18:19:08;9.20;99.90
24800;DHT22;12897;50.812;4.430;2023-02-01T18:21:41;9.10;99.90
24800;DHT22;12897;50.812;4.430;2023-02-01T18:24:12;9.10;99.90
24800;DHT22;12897;50.812;4.430;2023-02-01T18:26:40;9.10;99.90
24800;DHT22;12897;50.812;4.430;2023-02-01T18:29:08;9.30;99.90
24800;DHT22;12897;50.812;4.430;2023-02-01T18:31:43;9.20;99.90
24800;DHT22;12897;50.812;4.430;2023-02-01T18:34:08;9.20;99.90
24800;DHT22;12897;50.812;4.430;2023-02-01T18:36:38;9.20;99.90